createdAt,value
2023-01-19T00:00:31.299Z,9.97
2023-01-19T00:02:59.959Z,10.70
2023-01-19T00:05:26.575Z,11.90
2023-01-19T00:07:53.266Z,11.20
2023-01-19T00:10:19.988Z,15.23
2023-01-19T00:12:46.592Z,13.77
2023-01-19T00:15:13.357Z,16.13
2023-01-19T00:17:41.159Z,9.93
2023-01-19T00:20:10.158Z,11.87
2023-01-19T00:22:36.811Z,9.63
2023-01-19T00:25:03.915Z,14.03
2023-01-19T00:27:35.081Z,11.13
2023-01-19T00:30:02.608Z,10.80
2023-01-19T00:32:29.235Z,11.67
2023-01-19T00:34:55.844Z,12.63
2023-01-19T00:37:22.516Z,10.47
2023-01-19T00:39:49.080Z,13.57
2023-01-19T00:42:34.504Z,12.57
2023-01-19T00:45:01.023Z,9.97
2023-01-19T00:47:27.569Z,11.50
2023-01-19T00:49:55.404Z,11.30
2023-01-19T00:52:21.960Z,11.73
2023-01-19T00:54:48.557Z,13.60
2023-01-19T00:57:16.124Z,13.57
2023-01-19T00:59:43.428Z,13.73
2023-01-19T01:02:13.048Z,11.80
2023-01-19T01:04:39.710Z,12.57
2023-01-19T01:07:06.673Z,9.23
2023-01-19T01:09:33.190Z,9.50
2023-01-19T01:11:59.907Z,13.00
2023-01-19T01:14:26.483Z,12.13
2023-01-19T01:16:54.371Z,11.23
2023-01-19T01:19:21.511Z,14.20
2023-01-19T01:21:48.224Z,10.00
2023-01-19T01:24:14.881Z,12.20
2023-01-19T01:26:41.426Z,13.90
2023-01-19T01:29:08.807Z,9.50
2023-01-19T01:31:35.548Z,11.63
2023-01-19T01:34:02.531Z,9.93
2023-01-19T01:36:32.205Z,11.03
2023-01-19T01:38:59.728Z,11.30
2023-01-19T01:41:27.515Z,11.57
2023-01-19T01:43:58.712Z,9.63
2023-01-19T01:46:27.195Z,13.13
2023-01-19T01:49:08.075Z,11.80
2023-01-19T01:51:36.611Z,10.77
2023-01-19T01:54:19.826Z,9.90
2023-01-19T01:56:48.378Z,11.93
2023-01-19T01:59:25.919Z,11.27
2023-01-19T02:02:13.199Z,9.33
2023-01-19T02:04:49.194Z,12.43
2023-01-19T02:07:41.745Z,13.20
2023-01-19T02:10:28.226Z,12.90
2023-01-19T02:13:14.082Z,14.07
2023-01-19T02:15:40.768Z,9.63
2023-01-19T02:18:07.557Z,8.90
2023-01-19T02:20:35.496Z,9.33
2023-01-19T02:23:05.427Z,12.57
2023-01-19T02:25:32.215Z,11.30
2023-01-19T02:27:59.654Z,11.30
2023-01-19T02:30:26.316Z,14.23
2023-01-19T02:32:53.357Z,17.40
2023-01-19T02:35:20.307Z,14.13
2023-01-19T02:37:47.217Z,9.87
2023-01-19T02:40:15.729Z,13.17
2023-01-19T02:42:45.502Z,12.57
2023-01-19T02:45:18.588Z,9.37
2023-01-19T02:47:47.523Z,10.30
2023-01-19T02:50:36.519Z,17.57
2023-01-19T02:53:40.964Z,12.70
2023-01-19T02:56:19.841Z,10.77
2023-01-19T02:59:01.787Z,15.20
2023-01-19T03:01:48.323Z,10.90
2023-01-19T03:04:29.130Z,14.27
2023-01-19T03:07:09.779Z,9.40
2023-01-19T03:09:43.428Z,9.60
2023-01-19T03:12:32.106Z,11.53
2023-01-19T03:15:02.273Z,10.10
2023-01-19T03:17:31.322Z,12.80
2023-01-19T03:19:58.087Z,11.90
2023-01-19T03:22:27.291Z,13.43
2023-01-19T03:24:56.061Z,13.67
2023-01-19T03:27:26.790Z,10.73
2023-01-19T03:29:56.761Z,9.53
2023-01-19T03:32:30.398Z,11.73
2023-01-19T03:35:00.110Z,11.10
2023-01-19T03:37:28.332Z,8.73
2023-01-19T03:39:55.655Z,10.03
2023-01-19T03:42:23.361Z,12.50
2023-01-19T03:44:51.383Z,12.93
2023-01-19T03:47:20.214Z,11.20
2023-01-19T03:49:48.065Z,12.63
2023-01-19T03:52:14.834Z,12.37
2023-01-19T03:54:41.456Z,11.27
2023-01-19T03:57:08.162Z,11.73
2023-01-19T03:59:35.225Z,12.27
2023-01-19T04:02:02.283Z,10.70
2023-01-19T04:04:28.988Z,10.33
2023-01-19T04:06:55.640Z,11.40
2023-01-19T04:09:22.391Z,11.60
2023-01-19T04:11:49.005Z,8.40
2023-01-19T04:14:15.702Z,10.67
2023-01-19T04:16:42.311Z,10.70
2023-01-19T04:19:09.103Z,11.87
2023-01-19T04:21:35.967Z,9.93
2023-01-19T04:24:02.563Z,8.60
2023-01-19T04:26:29.268Z,12.10
2023-01-19T04:28:58.780Z,13.33
2023-01-19T04:31:25.631Z,11.00
2023-01-19T04:33:52.243Z,12.40
2023-01-19T04:36:18.834Z,9.70
2023-01-19T04:38:46.791Z,11.57
2023-01-19T04:41:13.568Z,10.30
2023-01-19T04:43:40.854Z,10.20
2023-01-19T04:46:07.767Z,11.40
2023-01-19T04:48:34.471Z,7.83
2023-01-19T04:51:01.031Z,10.10
2023-01-19T04:53:27.770Z,8.77
2023-01-19T04:55:55.341Z,10.57
2023-01-19T04:58:21.859Z,10.97
2023-01-19T05:00:51.383Z,11.83
2023-01-19T05:03:19.417Z,10.77
2023-01-19T05:05:46.483Z,9.73
2023-01-19T05:08:13.409Z,15.40
2023-01-19T05:10:40.069Z,12.87
2023-01-19T05:13:06.616Z,8.70
2023-01-19T05:15:33.345Z,11.37
2023-01-19T05:18:00.125Z,10.63
2023-01-19T05:20:27.120Z,11.37
2023-01-19T05:22:53.777Z,12.43
2023-01-19T05:25:20.379Z,11.23
2023-01-19T05:27:47.233Z,10.53
2023-01-19T05:30:14.438Z,14.93
2023-01-19T05:32:42.280Z,7.73
2023-01-19T05:35:09.646Z,11.23
2023-01-19T05:37:36.287Z,10.93
2023-01-19T05:40:03.328Z,11.10
2023-01-19T05:42:31.992Z,7.37
2023-01-19T05:44:59.637Z,9.63
2023-01-19T05:47:26.478Z,9.47
2023-01-19T05:49:53.187Z,8.07
2023-01-19T05:52:19.864Z,8.97
2023-01-19T05:54:46.466Z,11.37
2023-01-19T05:57:13.151Z,8.60
2023-01-19T05:59:39.857Z,7.73
2023-01-19T06:02:09.792Z,7.97
2023-01-19T06:04:36.647Z,9.67
2023-01-19T06:07:03.515Z,8.50
2023-01-19T06:09:30.484Z,8.60
2023-01-19T06:11:59.644Z,7.00
2023-01-19T06:14:26.740Z,8.73
2023-01-19T06:16:53.973Z,7.13
2023-01-19T06:19:20.886Z,9.87
2023-01-19T06:21:52.376Z,6.37
2023-01-19T06:24:19.515Z,8.43
2023-01-19T06:26:46.346Z,6.10
2023-01-19T06:29:13.122Z,7.50
2023-01-19T06:31:39.781Z,5.90
2023-01-19T06:34:07.560Z,5.50
2023-01-19T06:36:34.231Z,4.90
2023-01-19T06:39:03.369Z,5.00
2023-01-19T06:41:30.090Z,5.50
2023-01-19T06:43:56.746Z,9.00
2023-01-19T06:46:23.302Z,5.27
2023-01-19T06:48:49.963Z,5.30
2023-01-19T06:51:16.689Z,5.43
2023-01-19T06:53:43.613Z,8.13
2023-01-19T06:56:10.220Z,5.00
2023-01-19T06:58:37.023Z,4.93
2023-01-19T07:01:06.149Z,4.77
2023-01-19T07:03:33.531Z,7.93
2023-01-19T07:06:02.602Z,4.93
2023-01-19T07:08:30.369Z,5.13
2023-01-19T07:11:24.433Z,5.20
2023-01-19T07:13:54.878Z,4.70
2023-01-19T07:16:21.635Z,5.57
2023-01-19T07:18:48.852Z,4.30
2023-01-19T07:21:15.712Z,5.43
2023-01-19T07:23:43.539Z,5.23
2023-01-19T07:26:10.666Z,6.80
2023-01-19T07:28:37.270Z,9.87
2023-01-19T07:31:04.232Z,4.37
2023-01-19T07:33:30.874Z,4.30
2023-01-19T07:35:57.711Z,5.90
2023-01-19T07:38:24.280Z,5.90
2023-01-19T07:40:50.937Z,4.60
2023-01-19T07:43:17.573Z,5.40
2023-01-19T07:45:45.254Z,4.80
2023-01-19T07:48:12.031Z,6.90
2023-01-19T07:50:38.671Z,5.97
2023-01-19T07:53:09.450Z,5.27
2023-01-19T07:55:36.606Z,6.90
2023-01-19T07:58:06.664Z,8.70
2023-01-19T08:00:35.453Z,5.90
2023-01-19T08:03:04.101Z,8.20
2023-01-19T08:05:31.987Z,7.73
2023-01-19T08:07:59.142Z,10.20
2023-01-19T08:10:29.089Z,8.13
2023-01-19T08:12:57.209Z,9.60
2023-01-19T08:15:25.828Z,9.73
2023-01-19T08:18:00.220Z,13.50
2023-01-19T08:20:27.574Z,9.97
2023-01-19T08:23:00.237Z,12.80
2023-01-19T08:25:39.198Z,16.37
2023-01-19T08:28:06.826Z,10.00
2023-01-19T08:30:34.050Z,12.57
2023-01-19T08:33:09.549Z,16.97
2023-01-19T08:35:41.621Z,16.27
2023-01-19T08:38:09.767Z,12.00
2023-01-19T08:40:38.532Z,14.10
2023-01-19T08:43:11.570Z,16.33
2023-01-19T08:45:46.629Z,17.97
2023-01-19T08:48:13.767Z,18.87
2023-01-19T08:50:40.583Z,13.70
2023-01-19T08:53:07.733Z,16.70
2023-01-19T08:55:36.099Z,16.73
2023-01-19T08:58:06.582Z,17.13
2023-01-19T09:00:34.340Z,18.53
2023-01-19T09:03:04.950Z,18.57
2023-01-19T09:05:35.627Z,17.80
2023-01-19T09:08:03.651Z,15.70
2023-01-19T09:10:36.166Z,16.03
2023-01-19T09:13:08.410Z,17.63
2023-01-19T09:15:37.811Z,17.60
2023-01-19T09:18:05.878Z,16.80
2023-01-19T09:20:34.871Z,21.47
2023-01-19T09:23:01.535Z,22.90
2023-01-19T09:25:28.121Z,20.93
2023-01-19T09:27:56.249Z,21.37
2023-01-19T09:30:22.841Z,20.73
2023-01-19T09:32:49.557Z,25.20
2023-01-19T09:35:16.472Z,23.43
2023-01-19T09:37:46.491Z,26.03
2023-01-19T09:40:14.383Z,24.83
2023-01-19T09:42:45.002Z,23.53
2023-01-19T09:45:20.154Z,26.37
2023-01-19T09:47:48.872Z,22.47
2023-01-19T09:50:27.234Z,26.83
2023-01-19T09:53:07.496Z,32.73
2023-01-19T09:55:34.439Z,31.20
2023-01-19T09:58:01.380Z,28.43
2023-01-19T10:00:29.171Z,25.30
2023-01-19T10:03:15.496Z,26.97
2023-01-19T10:05:47.102Z,26.07
2023-01-19T10:08:20.092Z,26.20
2023-01-19T10:10:52.578Z,30.03
2023-01-19T10:13:29.327Z,28.87
2023-01-19T10:16:28.234Z,24.13
2023-01-19T10:18:59.303Z,26.17
2023-01-19T10:21:40.215Z,23.93
2023-01-19T10:24:19.023Z,26.50
2023-01-19T10:26:54.715Z,26.57
2023-01-19T10:29:34.518Z,28.67
2023-01-19T10:32:08.857Z,23.70
2023-01-19T10:34:35.795Z,23.47
2023-01-19T10:37:05.544Z,24.23
2023-01-19T10:39:34.860Z,27.60
2023-01-19T10:42:04.722Z,30.90
2023-01-19T10:44:36.638Z,33.87
2023-01-19T10:47:05.221Z,25.17
2023-01-19T10:49:40.165Z,33.47
2023-01-19T10:52:08.291Z,31.83
2023-01-19T10:54:36.832Z,33.37
2023-01-19T10:57:05.668Z,33.80
2023-01-19T10:59:49.870Z,32.03
2023-01-19T11:02:18.669Z,28.00
2023-01-19T11:04:49.815Z,36.63
2023-01-19T11:07:23.969Z,36.80
2023-01-19T11:10:11.687Z,28.90
2023-01-19T11:12:43.045Z,35.90
2023-01-19T11:15:29.991Z,28.60
2023-01-19T11:17:56.554Z,27.73
2023-01-19T11:20:29.695Z,35.93
2023-01-19T11:23:08.130Z,35.27
2023-01-19T11:25:36.160Z,35.30
2023-01-19T11:28:03.166Z,33.13
2023-01-19T11:30:30.159Z,35.23
2023-01-19T11:32:56.964Z,36.27
2023-01-19T11:35:40.728Z,37.00
2023-01-19T11:38:13.314Z,40.93
2023-01-19T11:40:40.724Z,33.67
2023-01-19T11:43:11.402Z,30.57
2023-01-19T11:45:38.372Z,38.80
2023-01-19T11:48:06.269Z,38.13
2023-01-19T11:50:41.793Z,41.50
2023-01-19T11:53:37.929Z,34.33
2023-01-19T11:56:09.174Z,38.87
2023-01-19T11:58:48.689Z,35.97
2023-01-19T12:01:25.472Z,40.00
2023-01-19T12:03:55.090Z,39.20
2023-01-19T12:06:29.897Z,42.93
2023-01-19T12:08:59.594Z,39.43
2023-01-19T12:11:31.563Z,39.97
2023-01-19T12:13:58.230Z,36.00
2023-01-19T12:16:29.034Z,35.60
2023-01-19T12:19:00.017Z,40.07
2023-01-19T12:21:26.765Z,39.77
2023-01-19T12:24:01.352Z,37.43
2023-01-19T12:26:34.491Z,34.03
2023-01-19T12:29:08.115Z,37.93
2023-01-19T12:31:35.194Z,40.10
2023-01-19T12:34:25.244Z,35.00
2023-01-19T12:36:53.086Z,36.53
2023-01-19T12:39:21.120Z,34.50
2023-01-19T12:41:48.799Z,36.73
2023-01-19T12:44:20.826Z,39.10
2023-01-19T12:46:54.628Z,41.13
2023-01-19T12:49:24.241Z,40.33
2023-01-19T12:51:52.663Z,36.30
2023-01-19T12:54:32.689Z,43.23
2023-01-19T12:57:02.582Z,37.03
2023-01-19T12:59:30.595Z,43.60
2023-01-19T13:02:25.169Z,41.30
2023-01-19T13:05:06.780Z,43.13
2023-01-19T13:08:02.790Z,47.20
2023-01-19T13:11:08.462Z,43.00
2023-01-19T13:14:04.885Z,37.43
2023-01-19T13:16:31.381Z,38.67
2023-01-19T13:19:05.565Z,41.67
2023-01-19T13:21:44.773Z,42.67
2023-01-19T13:24:15.129Z,41.47
2023-01-19T13:26:50.911Z,39.43
2023-01-19T13:29:26.383Z,46.13
2023-01-19T13:31:54.884Z,45.97
2023-01-19T13:34:23.728Z,38.73
2023-01-19T13:36:53.165Z,39.63
2023-01-19T13:39:22.796Z,45.47
2023-01-19T13:41:49.951Z,36.23
2023-01-19T13:44:27.200Z,40.37
2023-01-19T13:46:54.820Z,42.40
2023-01-19T13:49:29.290Z,41.73
2023-01-19T13:52:05.092Z,44.77
2023-01-19T13:54:31.777Z,42.07
2023-01-19T13:56:58.283Z,39.80
2023-01-19T13:59:25.044Z,41.67
2023-01-19T14:01:54.232Z,42.37
2023-01-19T14:04:32.987Z,38.47
2023-01-19T14:07:05.424Z,37.90
2023-01-19T14:09:32.208Z,40.40
2023-01-19T14:12:05.167Z,45.30
2023-01-19T14:14:32.081Z,40.90
2023-01-19T14:16:59.645Z,39.60
2023-01-19T14:19:26.300Z,38.47
2023-01-19T14:22:01.440Z,37.37
2023-01-19T14:24:31.940Z,34.33
2023-01-19T14:27:21.515Z,38.13
2023-01-19T14:29:50.595Z,38.63
2023-01-19T14:32:23.032Z,34.10
2023-01-19T14:35:05.119Z,33.60
2023-01-19T14:37:33.946Z,34.60
2023-01-19T14:40:13.111Z,33.70
2023-01-19T14:42:53.021Z,39.77
2023-01-19T14:45:28.114Z,38.00
2023-01-19T14:48:06.637Z,33.97
2023-01-19T14:50:38.541Z,32.67
2023-01-19T14:53:13.500Z,30.00
2023-01-19T14:56:05.534Z,31.90
2023-01-19T14:58:34.000Z,30.37
2023-01-19T15:01:00.740Z,33.20
2023-01-19T15:03:43.607Z,27.80
2023-01-19T15:06:13.884Z,28.93
2023-01-19T15:08:40.567Z,30.80
2023-01-19T15:11:12.223Z,29.33
2023-01-19T15:13:39.474Z,30.13
2023-01-19T15:16:08.913Z,30.20
2023-01-19T15:18:39.030Z,29.73
2023-01-19T15:21:05.943Z,28.70
2023-01-19T15:23:33.266Z,30.50
2023-01-19T15:26:03.433Z,23.70
2023-01-19T15:28:30.517Z,26.33
2023-01-19T15:30:58.608Z,26.27
2023-01-19T15:33:32.709Z,22.33
2023-01-19T15:35:59.547Z,24.50
2023-01-19T15:38:26.674Z,31.03
2023-01-19T15:40:55.194Z,25.73
2023-01-19T15:43:21.859Z,22.00
2023-01-19T15:45:50.905Z,22.83
2023-01-19T15:48:20.020Z,23.87
2023-01-19T15:50:47.809Z,23.27
2023-01-19T15:53:19.776Z,24.97
2023-01-19T15:55:50.399Z,25.27
2023-01-19T15:58:17.477Z,20.43
2023-01-19T16:00:44.320Z,21.43
2023-01-19T16:03:11.361Z,21.40
2023-01-19T16:05:43.421Z,25.30
2023-01-19T16:08:11.613Z,23.30
2023-01-19T16:10:38.421Z,22.60
2023-01-19T16:13:04.973Z,20.70
2023-01-19T16:15:31.710Z,25.67
2023-01-19T16:17:58.517Z,22.30
2023-01-19T16:20:25.168Z,25.50
2023-01-19T16:22:51.847Z,24.77
2023-01-19T16:25:18.511Z,27.67
2023-01-19T16:27:45.078Z,21.73
2023-01-19T16:30:12.949Z,18.23
2023-01-19T16:32:39.702Z,22.23
2023-01-19T16:35:06.576Z,23.63
2023-01-19T16:37:33.655Z,20.23
2023-01-19T16:40:00.370Z,19.27
2023-01-19T16:42:27.385Z,26.60
2023-01-19T16:44:54.741Z,22.03
2023-01-19T16:47:22.035Z,20.23
2023-01-19T16:49:49.197Z,22.57
2023-01-19T16:52:16.028Z,18.33
2023-01-19T16:54:43.353Z,19.37
2023-01-19T16:57:10.912Z,21.83
2023-01-19T16:59:39.485Z,19.73
2023-01-19T17:02:06.661Z,26.40
2023-01-19T17:04:33.555Z,24.33
2023-01-19T17:07:00.594Z,26.07
2023-01-19T17:09:27.404Z,25.30
2023-01-19T17:11:54.137Z,22.30
2023-01-19T17:14:21.060Z,20.70
2023-01-19T17:16:48.524Z,21.03
2023-01-19T17:19:18.646Z,21.17
2023-01-19T17:21:46.713Z,22.83
2023-01-19T17:24:13.479Z,19.37
2023-01-19T17:26:40.117Z,17.63
2023-01-19T17:29:09.238Z,20.70
2023-01-19T17:31:36.776Z,23.33
2023-01-19T17:34:04.444Z,20.40
2023-01-19T17:36:32.404Z,18.13
2023-01-19T17:39:00.687Z,24.13
2023-01-19T17:41:29.460Z,22.83
2023-01-19T17:43:56.399Z,21.30
2023-01-19T17:46:25.538Z,24.17
2023-01-19T17:48:54.423Z,19.27
2023-01-19T17:51:23.205Z,24.43
2023-01-19T17:53:50.931Z,23.23
2023-01-19T17:56:21.681Z,24.00
2023-01-19T17:58:49.676Z,21.57
2023-01-19T18:01:18.516Z,18.23
2023-01-19T18:03:45.362Z,19.47
2023-01-19T18:06:12.323Z,20.70
2023-01-19T18:08:40.764Z,25.97
2023-01-19T18:11:07.682Z,20.73
2023-01-19T18:13:35.316Z,21.70
2023-01-19T18:16:05.059Z,28.13
2023-01-19T18:18:32.953Z,19.73
2023-01-19T18:21:08.167Z,24.17
2023-01-19T18:23:35.207Z,22.30
2023-01-19T18:26:04.225Z,21.40
2023-01-19T18:28:31.667Z,20.97
2023-01-19T18:30:59.087Z,21.03
2023-01-19T18:33:26.419Z,24.97
2023-01-19T18:35:53.505Z,28.40
2023-01-19T18:38:20.464Z,24.60
2023-01-19T18:40:47.283Z,25.67
2023-01-19T18:43:14.374Z,27.30
2023-01-19T18:45:42.264Z,24.97
2023-01-19T18:48:09.612Z,20.80
2023-01-19T18:50:37.689Z,22.93
2023-01-19T18:53:04.874Z,23.83
2023-01-19T18:55:31.599Z,21.60
2023-01-19T18:57:58.297Z,23.37
2023-01-19T19:00:24.969Z,23.20
2023-01-19T19:02:51.726Z,21.07
2023-01-19T19:05:18.907Z,23.63
2023-01-19T19:07:46.007Z,24.93
2023-01-19T19:10:13.034Z,25.53
2023-01-19T19:12:39.788Z,21.77
2023-01-19T19:15:07.508Z,22.90
2023-01-19T19:17:37.203Z,24.53
2023-01-19T19:20:04.169Z,21.87
2023-01-19T19:22:31.736Z,19.53
2023-01-19T19:24:58.601Z,23.47
2023-01-19T19:27:25.121Z,21.93
2023-01-19T19:29:51.876Z,26.23
2023-01-19T19:32:20.595Z,18.17
2023-01-19T19:34:52.741Z,23.03
2023-01-19T19:37:22.538Z,27.00
2023-01-19T19:39:49.339Z,24.57
2023-01-19T19:42:15.955Z,29.07
2023-01-19T19:44:42.542Z,23.20
2023-01-19T19:47:09.685Z,26.80
2023-01-19T19:49:36.300Z,27.97
2023-01-19T19:52:02.975Z,22.93
2023-01-19T19:54:29.914Z,22.93
2023-01-19T19:56:56.441Z,44.43
2023-01-19T19:59:23.077Z,27.30
2023-01-19T20:01:51.213Z,25.70
2023-01-19T20:04:22.865Z,24.10
2023-01-19T20:06:50.141Z,24.13
2023-01-19T20:09:17.209Z,25.03
2023-01-19T20:11:45.208Z,25.20
2023-01-19T20:14:13.450Z,66.30
2023-01-19T20:16:40.950Z,37.27
2023-01-19T20:19:08.214Z,25.80
2023-01-19T20:21:41.967Z,25.53
2023-01-19T20:24:14.724Z,23.60
2023-01-19T20:26:44.535Z,23.00
2023-01-19T20:29:11.935Z,24.43
2023-01-19T20:31:42.605Z,22.73
2023-01-19T20:34:11.181Z,28.70
2023-01-19T20:36:38.309Z,23.97
2023-01-19T20:39:09.666Z,22.90
2023-01-19T20:41:43.379Z,23.47
2023-01-19T20:44:14.656Z,20.57
2023-01-19T20:46:41.375Z,24.23
2023-01-19T20:49:08.548Z,24.30
2023-01-19T20:51:37.407Z,25.07
2023-01-19T20:54:04.706Z,25.20
2023-01-19T20:56:31.538Z,25.67
2023-01-19T20:58:59.835Z,19.27
2023-01-19T21:01:29.081Z,20.07
2023-01-19T21:03:56.175Z,23.33
2023-01-19T21:06:25.133Z,23.87
2023-01-19T21:08:52.407Z,22.80
2023-01-19T21:11:23.010Z,26.87
2023-01-19T21:13:51.499Z,21.77
2023-01-19T21:16:19.440Z,24.17
2023-01-19T21:18:46.033Z,25.80
2023-01-19T21:21:29.026Z,26.80
2023-01-19T21:23:57.639Z,21.47
2023-01-19T21:26:24.345Z,21.47
2023-01-19T21:28:51.422Z,25.37
2023-01-19T21:31:18.427Z,21.47
2023-01-19T21:33:45.207Z,22.87
2023-01-19T21:36:12.054Z,20.83
2023-01-19T21:38:40.179Z,22.97
2023-01-19T21:41:09.635Z,22.10
2023-01-19T21:43:39.024Z,20.13
2023-01-19T21:46:10.715Z,22.80
2023-01-19T21:48:37.814Z,21.90
2023-01-19T21:51:05.211Z,19.90
2023-01-19T21:53:32.217Z,24.40
2023-01-19T21:56:00.319Z,26.63
2023-01-19T21:58:27.564Z,26.47
2023-01-19T22:01:05.146Z,20.87
2023-01-19T22:03:31.902Z,21.37
2023-01-19T22:06:06.862Z,18.47
2023-01-19T22:08:34.399Z,21.83
2023-01-19T22:11:20.247Z,20.03
2023-01-19T22:13:47.178Z,20.53
2023-01-19T22:16:18.460Z,23.53
2023-01-19T22:18:49.579Z,22.47
2023-01-19T22:21:18.926Z,23.80
2023-01-19T22:23:52.039Z,21.43
2023-01-19T22:26:19.187Z,21.93
2023-01-19T22:28:45.820Z,20.87
2023-01-19T22:31:17.791Z,23.13
2023-01-19T22:33:45.209Z,23.10
2023-01-19T22:36:25.742Z,26.33
2023-01-19T22:38:54.539Z,25.53
2023-01-19T22:41:22.595Z,23.00
2023-01-19T22:43:50.722Z,25.10
2023-01-19T22:46:19.286Z,28.30
2023-01-19T22:48:47.082Z,21.43
2023-01-19T22:51:14.305Z,26.13
2023-01-19T22:53:41.044Z,26.37
2023-01-19T22:56:16.079Z,24.73
2023-01-19T22:58:46.099Z,25.77
2023-01-19T23:01:15.125Z,22.60
2023-01-19T23:03:41.746Z,29.97
2023-01-19T23:06:29.580Z,29.80
2023-01-19T23:08:58.278Z,27.60
2023-01-19T23:11:30.740Z,30.13
2023-01-19T23:13:58.536Z,29.53
2023-01-19T23:16:25.607Z,29.77
2023-01-19T23:18:56.943Z,28.17
2023-01-19T23:21:25.779Z,25.30
2023-01-19T23:24:10.733Z,25.80
2023-01-19T23:26:43.381Z,30.20
2023-01-19T23:29:12.892Z,30.17
2023-01-19T23:31:43.649Z,28.40
2023-01-19T23:34:11.054Z,28.87
2023-01-19T23:36:41.663Z,28.83
2023-01-19T23:39:13.450Z,29.60
2023-01-19T23:41:40.082Z,27.20
2023-01-19T23:44:06.675Z,26.63
2023-01-19T23:46:33.369Z,36.77
2023-01-19T23:49:00.340Z,33.00
2023-01-19T23:51:29.266Z,30.97
2023-01-19T23:53:56.847Z,31.10
2023-01-19T23:56:27.397Z,40.00
2023-01-19T23:59:00.092Z,33.10
